Time;durP1;ratioP1;P1;durP2;ratioP2;P2;SDS_P1;SDS_P2;PMS_P1;PMS_P2;Temp;Humidity;BMP_temperature;BMP_pressure;BME280_temperature;BME280_humidity;BME280_pressure;Samples;Min_cycle;Max_cycle;Signal;HPM_P1;HPM_P2
2022/04/17 00:00:13;;;;;;;1.75;1.65;;;;;;;2.11;100.00;99920.69;5174235;27;20477;-61
2022/04/17 00:02:39;;;;;;;1.83;1.73;;;;;;;2.08;100.00;99934.00;5174163;27;20098;-61
2022/04/17 00:05:07;;;;;;;5.85;1.58;;;;;;;2.02;100.00;99951.38;5174617;27;20054;-61
2022/04/17 00:07:34;;;;;;;1.58;1.48;;;;;;;1.93;100.00;99934.97;5174289;27;20507;-61
2022/04/17 00:10:01;;;;;;;1.67;1.40;;;;;;;1.90;100.00;99932.88;5174316;27;20528;-61
2022/04/17 00:12:28;;;;;;;1.77;1.30;;;;;;;1.78;100.00;99949.47;5174517;27;20102;-61
2022/04/17 00:14:55;;;;;;;1.30;1.20;;;;;;;1.77;100.00;99977.63;5174233;27;20139;-61
2022/04/17 00:17:22;;;;;;;2.97;1.70;;;;;;;1.71;100.00;100011.19;5173853;27;20058;-61
2022/04/17 00:19:49;;;;;;;2.53;1.67;;;;;;;1.67;100.00;100036.34;5174055;27;20050;-61
2022/04/17 00:22:15;;;;;;;2.75;1.70;;;;;;;1.71;100.00;100072.56;5174196;27;20062;-61
2022/04/17 00:24:42;;;;;;;1.70;1.60;;;;;;;1.62;100.00;100085.88;5174058;27;20050;-61
2022/04/17 00:27:08;;;;;;;1.80;1.70;;;;;;;1.62;100.00;100092.09;5174622;27;20042;-61
2022/04/17 00:29:35;;;;;;;5.32;1.70;;;;;;;1.58;100.00;100095.66;5173807;27;20512;-62
2022/04/17 00:32:02;;;;;;;2.45;1.45;;;;;;;1.59;100.00;100108.06;5173863;27;20054;-61
2022/04/17 00:34:30;;;;;;;1.85;1.45;;;;;;;1.55;100.00;100107.00;5173883;27;20054;-61
2022/04/17 00:36:59;;;;;;;2.88;1.55;;;;;;;1.51;100.00;100119.47;5173836;27;20046;-61
2022/04/17 00:39:25;;;;;;;2.00;1.80;;;;;;;1.51;100.00;100131.09;5174089;27;20409;-61
2022/04/17 00:41:53;;;;;;;1.95;1.75;;;;;;;1.53;100.00;100144.31;5173529;27;20058;-61
2022/04/17 00:44:19;;;;;;;1.67;1.50;;;;;;;1.48;100.00;100137.06;5173899;27;20408;-61
2022/04/17 00:46:46;;;;;;;2.35;1.60;;;;;;;1.50;100.00;100142.16;5173688;27;20042;-61
2022/04/17 00:49:12;;;;;;;1.67;1.58;;;;;;;1.51;100.00;100127.59;5173747;27;20046;-61
2022/04/17 00:51:41;;;;;;;2.47;1.80;;;;;;;1.57;100.00;100111.06;5173506;27;20425;-61
2022/04/17 00:54:09;;;;;;;2.55;1.60;;;;;;;1.69;100.00;100102.56;5173518;27;20050;-61
2022/04/17 00:56:35;;;;;;;2.10;1.40;;;;;;;1.81;100.00;100094.09;5173479;27;20050;-61
2022/04/17 00:59:02;;;;;;;1.70;1.60;;;;;;;1.85;100.00;100051.88;5173397;27;20065;-61
2022/04/17 01:01:32;;;;;;;2.85;1.55;;;;;;;1.83;100.00;100033.25;5173295;27;20053;-61
2022/04/17 01:03:58;;;;;;;2.40;1.25;;;;;;;1.86;100.00;99992.09;5173292;27;20042;-61
2022/04/17 01:06:25;;;;;;;1.70;1.50;;;;;;;1.92;100.00;99975.84;5173413;27;20138;-61
2022/04/17 01:08:51;;;;;;;1.95;1.40;;;;;;;2.05;100.00;99964.31;5173190;27;20050;-62
2022/04/17 01:11:17;;;;;;;4.07;1.48;;;;;;;2.05;100.00;99885.91;5173398;27;20046;-62
2022/04/17 01:13:44;;;;;;;1.52;1.42;;;;;;;2.02;100.00;99845.91;5173065;27;20079;-61
2022/04/17 01:16:14;;;;;;;1.05;1.05;;;;;;;2.06;100.00;99849.63;5172974;27;20099;-61
2022/04/17 01:18:54;;;;;;;1.35;1.25;;;;;;;2.11;100.00;99820.63;5173028;27;20050;-61
2022/04/17 01:21:21;;;;;;;2.15;1.70;;;;;;;2.10;100.00;99775.75;5173079;27;20054;-61
2022/04/17 01:29:17;;;;;;;2.10;1.23;;;;;;;2.07;100.00;99753.91;5173349;27;20134;-61
2022/04/17 01:31:44;;;;;;;1.10;1.10;;;;;;;2.03;100.00;99737.44;5173042;27;20067;-61
2022/04/17 01:34:10;;;;;;;1.80;1.30;;;;;;;2.11;100.00;99773.84;5173660;27;20892;-61
2022/04/17 01:36:37;;;;;;;1.55;1.40;;;;;;;2.08;100.00;99715.72;5173007;27;20114;-61
2022/04/17 01:39:03;;;;;;;1.63;1.38;;;;;;;2.08;100.00;99742.75;5173310;27;20042;-61
2022/04/17 01:41:29;;;;;;;2.28;1.60;;;;;;;2.15;100.00;99761.31;5172488;27;20050;-61
2022/04/17 01:43:55;;;;;;;1.58;1.40;;;;;;;2.13;100.00;99725.63;5172743;27;20054;-61
2022/04/17 01:46:22;;;;;;;2.58;1.35;;;;;;;2.07;100.00;99703.31;5172944;27;20560;-61
2022/04/17 01:48:48;;;;;;;7.28;1.92;;;;;;;2.02;100.00;99708.78;5172591;27;20057;-61
2022/04/17 01:51:14;;;;;;;4.03;1.50;;;;;;;2.03;100.00;99740.16;5172586;27;20241;-61
2022/04/17 01:53:41;;;;;;;1.75;1.50;;;;;;;2.08;100.00;99799.56;5172477;27;20049;-61
2022/04/17 01:56:07;;;;;;;4.53;1.70;;;;;;;2.11;100.00;99825.22;5172646;27;20050;-61
2022/04/17 01:58:33;;;;;;;1.58;1.38;;;;;;;2.09;100.00;99817.38;5172473;27;20046;-61
2022/04/17 02:01:00;;;;;;;3.53;1.48;;;;;;;2.11;100.00;99817.13;5172780;27;20176;-61
2022/04/17 02:03:26;;;;;;;3.58;1.40;;;;;;;2.09;100.00;99836.31;5172294;27;20102;-62
2022/04/17 02:05:52;;;;;;;1.98;1.70;;;;;;;2.08;100.00;99844.75;5172886;27;20050;-61
2022/04/17 02:08:18;;;;;;;1.60;1.50;;;;;;;2.03;100.00;99882.66;5172314;27;20046;-61
2022/04/17 02:10:45;;;;;;;1.25;1.25;;;;;;;1.96;100.00;99885.72;5172604;27;20599;-61
2022/04/17 02:13:11;;;;;;;2.28;1.50;;;;;;;1.86;100.00;99907.47;5172246;27;20523;-61
2022/04/17 02:15:37;;;;;;;3.03;1.30;;;;;;;1.67;100.00;99904.75;5171746;27;20050;-61
2022/04/17 02:18:04;;;;;;;4.85;1.80;;;;;;;1.64;100.00;99948.56;5172190;27;20046;-61
2022/04/17 02:20:30;;;;;;;1.90;1.42;;;;;;;1.66;100.00;99992.31;5172102;27;20046;-61
2022/04/17 02:22:56;;;;;;;1.67;1.58;;;;;;;1.64;100.00;100029.66;5171708;27;20098;-61
2022/04/17 02:25:22;;;;;;;2.00;1.83;;;;;;;1.58;100.00;100055.09;5172035;27;20057;-61
2022/04/17 02:27:49;;;;;;;3.05;1.42;;;;;;;1.51;100.00;100074.34;5172430;27;20549;-61
2022/04/17 02:30:15;;;;;;;3.13;1.90;;;;;;;1.42;100.00;100070.63;5171956;27;20050;-61
2022/04/17 02:32:41;;;;;;;2.28;1.48;;;;;;;1.35;100.00;100102.56;5172336;27;20106;-61
2022/04/17 02:35:08;;;;;;;4.80;2.00;;;;;;;1.30;100.00;100135.84;5172123;27;20054;-61
2022/04/17 02:37:36;;;;;;;2.47;1.65;;;;;;;1.24;100.00;100168.56;5172338;27;20080;-61
2022/04/17 02:40:03;;;;;;;2.83;1.80;;;;;;;1.12;100.00;100183.19;5171875;27;20058;-61
2022/04/17 02:42:30;;;;;;;2.38;1.55;;;;;;;1.16;100.00;100221.25;5171825;27;20069;-61
2022/04/17 02:44:56;;;;;;;1.63;1.45;;;;;;;1.12;100.00;100242.59;5172113;27;20056;-61
2022/04/17 02:50:07;;;;;;;;;;;;;;;1.00;100.00;100268.28;5172771;27;20932;-62
2022/04/17 02:52:34;;;;;;;2.95;1.58;;;;;;;0.96;100.00;100294.22;5172319;27;20419;-61
2022/04/17 02:55:00;;;;;;;4.40;1.85;;;;;;;0.95;100.00;100317.72;5172039;27;20054;-61
2022/04/17 02:57:26;;;;;;;2.85;1.50;;;;;;;0.88;100.00;100312.59;5171704;27;20046;-61
2022/04/17 02:59:53;;;;;;;2.08;1.50;;;;;;;0.86;100.00;100325.56;5172068;27;20516;-61
2022/04/17 03:07:50;;;;;;;1.40;1.30;;;;;;;0.72;100.00;100319.09;5171924;27;20133;-61
2022/04/17 03:10:16;;;;;;;2.53;1.80;;;;;;;0.73;100.00;100315.31;5171321;27;20046;-61
2022/04/17 03:12:42;;;;;;;2.88;1.70;;;;;;;0.76;100.00;100319.34;5171753;27;20051;-61
2022/04/17 03:15:10;;;;;;;1.67;1.40;;;;;;;0.77;100.00;100327.19;5171479;27;20053;-61
2022/04/17 03:17:37;;;;;;;1.52;1.40;;;;;;;0.77;100.00;100310.16;5171442;27;20046;-62
2022/04/17 03:20:03;;;;;;;2.25;1.90;;;;;;;0.74;100.00;100306.16;5171277;27;20046;-61
2022/04/17 03:22:30;;;;;;;3.17;1.73;;;;;;;0.66;100.00;100295.88;5171310;27;20070;-61
2022/04/17 03:24:56;;;;;;;3.00;1.95;;;;;;;0.66;100.00;100296.69;5171178;27;20425;-61
2022/04/17 03:27:22;;;;;;;2.53;1.60;;;;;;;0.64;100.00;100292.66;5171351;27;20060;-61
2022/04/17 03:29:49;;;;;;;2.13;1.63;;;;;;;0.74;100.00;100300.75;5171326;27;20519;-61
2022/04/17 03:32:15;;;;;;;3.92;1.67;;;;;;;0.73;100.00;100280.22;5171372;27;20441;-61
2022/04/17 03:34:42;;;;;;;4.20;1.52;;;;;;;0.71;100.00;100290.50;5173948;27;20053;-61
2022/04/17 03:37:08;;;;;;;3.70;1.77;;;;;;;0.79;100.00;100300.72;5174784;27;20057;-61
2022/04/17 03:39:34;;;;;;;3.10;1.77;;;;;;;0.86;100.00;100300.44;5174983;27;20061;-61
2022/04/17 03:42:01;;;;;;;1.98;1.75;;;;;;;0.90;100.00;100285.31;5174758;27;20098;-61
2022/04/17 03:44:27;;;;;;;1.92;1.75;;;;;;;1.22;100.00;100295.78;5174645;27;20056;-62
2022/04/17 03:46:53;;;;;;;2.85;1.90;;;;;;;1.85;100.00;100277.13;5174609;27;20523;-61
2022/04/17 03:49:20;;;;;;;1.80;1.40;;;;;;;2.42;100.00;100195.53;5174648;27;20050;-62
2022/04/17 03:51:47;;;;;;;1.88;1.50;;;;;;;2.86;100.00;100042.88;5174426;27;20061;-61
2022/04/17 03:54:13;;;;;;;1.20;1.17;;;;;;;3.43;100.00;99848.47;5174251;27;20046;-62
2022/04/17 03:56:40;;;;;;;1.92;1.55;;;;;;;4.14;100.00;99621.78;5174580;27;20577;-62
2022/04/17 03:59:06;;;;;;;1.80;1.45;;;;;;;4.83;100.00;99386.84;5174418;27;20141;-61
2022/04/17 04:01:32;;;;;;;1.60;1.50;;;;;;;5.32;100.00;99197.13;5174745;27;20042;-61
2022/04/17 04:03:58;;;;;;;2.38;1.80;;;;;;;5.82;100.00;99123.63;5174511;27;20563;-61
2022/04/17 04:06:24;;;;;;;1.70;1.60;;;;;;;6.25;100.00;99075.38;5174782;27;20549;-62
2022/04/17 04:08:51;;;;;;;1.60;1.50;;;;;;;6.46;100.00;99083.44;5174495;27;20069;-62
2022/04/17 04:11:18;;;;;;;5.03;1.50;;;;;;;6.83;100.00;99092.41;5174584;27;20496;-62
2022/04/17 04:13:44;;;;;;;2.33;1.42;;;;;;;6.63;100.00;99124.13;5174301;27;20106;-61
2022/04/17 04:16:10;;;;;;;1.58;1.48;;;;;;;6.95;100.00;99119.66;5173620;27;20496;-62
2022/04/17 04:18:37;;;;;;;1.50;1.35;;;;;;;7.35;100.00;99140.75;5174125;27;20057;-62
2022/04/17 04:21:03;;;;;;;2.78;1.70;;;;;;;7.28;100.00;99176.78;5174363;27;20046;-62
2022/04/17 04:23:31;;;;;;;2.13;1.83;;;;;;;7.37;100.00;99162.25;5173919;27;20055;-62
2022/04/17 04:25:58;;;;;;;1.85;1.23;;;;;;;7.75;100.00;99157.13;5173969;27;20042;-62
2022/04/17 04:28:33;;;;;;;1.50;1.40;;;;;;;8.19;100.00;99202.81;5174001;27;20107;-62
2022/04/17 04:30:59;;;;;;;2.08;1.60;;;;;;;8.27;100.00;99234.66;5173958;27;20141;-62
2022/04/17 04:33:26;;;;;;;1.48;1.20;;;;;;;8.61;100.00;99235.22;5174034;27;20046;-62
2022/04/17 04:35:52;;;;;;;2.50;1.35;;;;;;;8.81;100.00;99277.94;5173726;27;20390;-62
2022/04/17 04:38:18;;;;;;;1.60;1.50;;;;;;;9.06;100.00;99278.56;5174013;27;20527;-62
2022/04/17 04:40:44;;;;;;;1.63;1.30;;;;;;;9.34;100.00;99296.84;5173948;27;20633;-62
2022/04/17 04:43:12;;;;;;;1.65;1.55;;;;;;;9.65;100.00;99306.97;5173964;27;20094;-62
2022/04/17 04:51:03;;;;;;;1.42;1.33;;;;;;;10.11;100.00;99394.91;5172695;27;20051;-62
2022/04/17 04:53:29;;;;;;;3.38;1.25;;;;;;;9.97;100.00;99408.28;5173531;27;20049;-63
2022/04/17 04:55:55;;;;;;;2.70;1.40;;;;;;;9.90;100.00;99408.91;5173829;27;20058;-63
2022/04/17 04:58:22;;;;;;;1.52;1.35;;;;;;;9.79;100.00;99400.41;5173232;27;20042;-62
2022/04/17 05:00:48;;;;;;;2.25;1.40;;;;;;;10.19;100.00;99388.44;5173679;27;20043;-63
2022/04/17 05:03:14;;;;;;;2.22;1.27;;;;;;;10.60;100.00;99422.69;5173397;27;20058;-63
2022/04/17 05:05:41;;;;;;;1.25;1.15;;;;;;;10.74;100.00;99446.06;5173549;27;20042;-62
2022/04/17 05:08:08;;;;;;;3.92;1.45;;;;;;;10.43;100.00;99433.22;5173236;27;20072;-63
2022/04/17 05:10:34;;;;;;;3.67;1.27;;;;;;;11.01;100.00;99425.88;5173417;27;20046;-63
2022/04/17 05:13:00;;;;;;;1.23;1.10;;;;;;;11.26;100.00;99451.06;5173145;27;20057;-64
2022/04/17 05:15:27;;;;;;;1.63;1.10;;;;;;;11.18;100.00;99487.75;5173076;27;20049;-63
2022/04/17 05:17:53;;;;;;;1.10;1.00;;;;;;;11.36;100.00;99484.56;5172725;27;20500;-63
2022/04/17 05:20:19;;;;;;;2.10;1.17;;;;;;;11.96;100.00;99471.19;5173003;27;20053;-63
2022/04/17 05:22:45;;;;;;;6.47;1.05;;;;;;;12.12;100.00;99485.59;5173202;27;20197;-63
2022/04/17 05:25:11;;;;;;;1.63;1.52;;;;;;;11.88;100.00;99521.69;5172990;27;20057;-62
2022/04/17 05:27:38;;;;;;;1.45;1.15;;;;;;;11.68;100.00;99512.66;5173404;27;20050;-63
2022/04/17 05:30:05;;;;;;;2.25;1.00;;;;;;;12.35;100.00;99499.31;5173402;27;20049;-63
2022/04/17 05:32:32;;;;;;;2.17;1.40;;;;;;;12.52;100.00;99525.50;5173226;27;20050;-63
2022/04/17 05:34:58;;;;;;;1.80;1.20;;;;;;;12.66;100.00;99547.75;5173184;27;20478;-63
2022/04/17 05:37:24;;;;;;;1.80;0.98;;;;;;;12.56;100.00;99540.13;5173237;27;20046;-63
2022/04/17 05:39:50;;;;;;;1.10;1.10;;;;;;;12.78;100.00;99540.44;5172891;27;20050;-63
2022/04/17 05:42:16;;;;;;;1.40;1.30;;;;;;;12.70;100.00;99559.59;5172424;27;20062;-63
2022/04/17 05:44:43;;;;;;;0.95;0.90;;;;;;;12.77;100.00;99556.16;5173015;27;20106;-62
2022/04/17 05:47:09;;;;;;;1.50;0.90;;;;;;;12.63;100.00;99573.25;5172582;27;20049;-63
2022/04/17 05:49:36;;;;;;;1.70;0.90;;;;;;;12.52;100.00;99572.25;5172993;27;20069;-63
2022/04/17 05:52:03;;;;;;;1.10;1.10;;;;;;;13.11;100.00;99572.78;5172525;27;20049;-63
2022/04/17 05:54:29;;;;;;;2.25;1.15;;;;;;;13.41;100.00;99576.34;5172716;27;20053;-63
2022/04/17 05:56:55;;;;;;;1.52;1.40;;;;;;;13.18;94.08;99601.19;5171467;27;20498;-63
2022/04/17 05:59:22;;;;;;;2.08;1.00;;;;;;;12.74;99.87;99581.66;5172792;27;20057;-62
2022/04/17 06:01:48;;;;;;;0.90;0.90;;;;;;;12.71;98.39;99585.16;5172357;27;20439;-62
2022/04/17 06:04:14;;;;;;;1.10;0.93;;;;;;;13.13;92.84;99603.47;5172576;27;20102;-63
2022/04/17 06:06:42;;;;;;;2.22;0.93;;;;;;;12.95;97.10;99600.44;5172371;27;20110;-63
2022/04/17 06:09:08;;;;;;;1.08;0.95;;;;;;;13.16;94.01;99609.03;5172344;27;20069;-63
2022/04/17 06:11:34;;;;;;;0.90;0.90;;;;;;;13.62;93.32;99603.38;5172209;27;20049;-63
2022/04/17 06:14:01;;;;;;;0.90;0.85;;;;;;;13.48;91.62;99610.66;5172237;27;20401;-63
2022/04/17 06:16:27;;;;;;;2.58;1.10;;;;;;;13.18;92.39;99611.41;5172155;27;20389;-63
2022/04/17 06:18:53;;;;;;;1.27;1.00;;;;;;;12.83;91.34;99614.41;5172132;27;20527;-63
2022/04/17 06:21:19;;;;;;;1.15;0.90;;;;;;;12.82;91.75;99610.84;5172365;27;20050;-63
2022/04/17 06:23:46;;;;;;;0.80;0.80;;;;;;;12.77;91.23;99611.19;5172070;27;20053;-63
2022/04/17 06:26:12;;;;;;;4.35;1.02;;;;;;;12.81;87.83;99620.28;5172463;27;20430;-63
2022/04/17 06:28:38;;;;;;;1.90;1.02;;;;;;;12.87;87.57;99623.53;5172062;27;20061;-62
2022/04/17 06:31:07;;;;;;;1.58;1.00;;;;;;;13.21;82.61;99631.91;5172123;27;20050;-63
2022/04/17 06:33:33;;;;;;;1.08;1.00;;;;;;;13.74;82.37;99637.38;5172084;27;20061;-63
2022/04/17 06:35:59;;;;;;;1.67;0.90;;;;;;;13.70;78.06;99640.09;5171913;27;20102;-63
2022/04/17 06:38:25;;;;;;;2.88;1.02;;;;;;;13.12;83.49;99646.72;5172001;27;20054;-63
2022/04/17 06:40:52;;;;;;;1.70;1.08;;;;;;;12.76;82.88;99642.59;5172161;27;20105;-63
2022/04/17 06:43:18;;;;;;;5.30;1.10;;;;;;;13.41;79.27;99645.19;5171849;27;20524;-63
2022/04/17 06:45:45;;;;;;;1.05;1.02;;;;;;;13.30;78.78;99646.22;5171941;27;20051;-63
2022/04/17 06:48:13;;;;;;;6.03;1.10;;;;;;;13.10;74.39;99662.03;5172078;27;20050;-62
2022/04/17 06:50:39;;;;;;;1.73;1.10;;;;;;;12.70;77.16;99655.09;5172016;27;20529;-62
2022/04/17 06:53:05;;;;;;;2.25;1.00;;;;;;;12.44;79.38;99656.59;5171928;27;20046;-62
2022/04/17 06:55:32;;;;;;;1.27;1.08;;;;;;;12.69;79.28;99651.53;5171882;27;20046;-63
2022/04/17 06:57:59;;;;;;;1.05;1.00;;;;;;;12.92;76.03;99651.50;5171958;27;20050;-63
2022/04/17 07:00:25;;;;;;;0.82;0.82;;;;;;;12.73;77.45;99654.34;5171911;27;20050;-63
2022/04/17 07:02:51;;;;;;;1.25;1.10;;;;;;;13.15;73.91;99650.69;5171585;27;20501;-63
2022/04/17 07:05:17;;;;;;;1.60;0.82;;;;;;;13.11;76.24;99660.84;5171716;27;20103;-63
2022/04/17 07:07:43;;;;;;;8.38;1.00;;;;;;;12.99;72.48;99667.34;5173319;27;20050;-63
2022/04/17 07:10:11;;;;;;;1.10;1.00;;;;;;;12.71;73.06;99671.22;5175506;27;20050;-63
2022/04/17 07:12:37;;;;;;;1.10;0.88;;;;;;;12.84;73.95;99665.53;5175645;27;20165;-63
2022/04/17 07:15:06;;;;;;;1.90;0.85;;;;;;;12.70;70.50;99671.59;5175714;27;20049;-62
2022/04/17 07:17:35;;;;;;;4.13;1.20;;;;;;;12.76;75.13;99672.06;5174756;27;20512;-63
2022/04/17 07:20:01;;;;;;;2.65;0.77;;;;;;;12.78;75.11;99659.53;5175281;27;20050;-63
2022/04/17 07:22:28;;;;;;;0.90;0.90;;;;;;;12.76;75.15;99666.56;5174764;27;20071;-63
2022/04/17 07:24:54;;;;;;;2.58;0.82;;;;;;;12.31;72.88;99660.66;5175059;27;20050;-62
2022/04/17 07:27:20;;;;;;;1.42;0.90;;;;;;;12.28;73.12;99679.84;5174908;27;20429;-62
2022/04/17 07:29:47;;;;;;;3.38;0.82;;;;;;;12.31;70.26;99663.41;5175067;27;20067;-63
2022/04/17 07:32:13;;;;;;;0.90;0.80;;;;;;;12.53;70.65;99664.63;5175320;27;20092;-63
2022/04/17 07:34:40;;;;;;;0.73;0.73;;;;;;;12.81;69.12;99658.00;5174915;27;20061;-62
2022/04/17 07:37:06;;;;;;;2.83;0.60;;;;;;;12.64;71.39;99665.59;5174822;27;20053;-63
2022/04/17 07:39:32;;;;;;;1.23;0.82;;;;;;;12.97;70.12;99668.91;5174728;27;20046;-63
2022/04/17 07:41:59;;;;;;;1.00;0.90;;;;;;;12.25;68.90;99660.16;5174908;27;20049;-63
2022/04/17 07:44:29;;;;;;;1.90;1.00;;;;;;;12.33;69.85;99660.28;5174851;27;20081;-63
2022/04/17 07:46:56;;;;;;;0.68;0.68;;;;;;;12.47;70.60;99652.31;5175153;27;20137;-64
2022/04/17 07:49:26;;;;;;;1.10;0.90;;;;;;;12.77;68.80;99652.44;5174606;27;20053;-63
2022/04/17 07:51:52;;;;;;;0.80;0.80;;;;;;;13.13;71.93;99645.56;5174907;27;20058;-63
2022/04/17 07:54:18;;;;;;;0.95;0.73;;;;;;;13.03;68.98;99648.13;5174705;27;20053;-63
2022/04/17 07:56:44;;;;;;;0.70;0.68;;;;;;;12.74;69.54;99638.66;5174437;27;20054;-63
2022/04/17 07:59:12;;;;;;;3.20;0.75;;;;;;;12.75;71.91;99664.97;5174739;27;20054;-63
2022/04/17 08:01:40;;;;;;;0.82;0.77;;;;;;;12.54;69.19;99649.69;5174325;27;20071;-62
2022/04/17 08:04:06;;;;;;;1.00;0.93;;;;;;;12.93;67.73;99655.88;5174322;27;20068;-63
2022/04/17 08:06:33;;;;;;;1.42;0.90;;;;;;;13.10;69.70;99654.56;5174345;27;20046;-63
2022/04/17 08:09:00;;;;;;;1.60;0.90;;;;;;;12.69;64.49;99664.47;5174595;27;20053;-62
2022/04/17 08:11:28;;;;;;;1.40;1.00;;;;;;;12.74;67.49;99655.94;5174247;27;20050;-63
2022/04/17 08:13:54;;;;;;;0.88;0.82;;;;;;;12.46;65.91;99651.53;5174390;27;20050;-63
2022/04/17 08:16:21;;;;;;;2.15;0.90;;;;;;;12.75;66.04;99657.53;5173874;27;20057;-63
2022/04/17 08:18:47;;;;;;;1.00;0.80;;;;;;;12.34;65.13;99650.91;5173718;27;20420;-63
2022/04/17 08:21:13;;;;;;;4.70;0.80;;;;;;;12.02;64.87;99659.31;5174163;27;20046;-62
2022/04/17 08:23:41;;;;;;;1.08;0.80;;;;;;;12.10;67.09;99657.53;5174245;27;20057;-63
2022/04/17 08:26:07;;;;;;;0.80;0.80;;;;;;;12.29;69.40;99640.19;5174385;27;20378;-63
2022/04/17 08:28:33;;;;;;;1.48;0.77;;;;;;;13.01;68.99;99643.00;5174107;27;20046;-62
2022/04/17 08:31:00;;;;;;;0.88;0.80;;;;;;;13.00;68.36;99640.63;5173726;27;20049;-62
2022/04/17 08:33:26;;;;;;;1.40;0.93;;;;;;;12.99;66.36;99639.81;5173694;27;20063;-62
2022/04/17 08:35:53;;;;;;;1.63;1.00;;;;;;;13.31;66.53;99640.34;5173675;27;20051;-63
2022/04/17 08:38:21;;;;;;;0.73;0.70;;;;;;;13.54;65.09;99634.75;5173805;27;20058;-62
2022/04/17 08:40:49;;;;;;;2.38;0.80;;;;;;;13.24;63.88;99642.19;5173918;27;20420;-63
2022/04/17 08:43:18;;;;;;;4.95;0.90;;;;;;;13.00;65.43;99630.41;5173601;27;20385;-62
2022/04/17 08:45:49;;;;;;;2.15;1.00;;;;;;;12.98;66.43;99638.25;5173650;27;20420;-63
2022/04/17 08:48:16;;;;;;;1.42;0.88;;;;;;;13.22;70.28;99619.72;5173623;27;20113;-64
2022/04/17 08:50:42;;;;;;;0.80;0.80;;;;;;;13.13;64.76;99625.50;5173500;27;20050;-63
2022/04/17 08:53:10;;;;;;;1.42;0.80;;;;;;;13.05;66.06;99621.03;5173359;27;20057;-63
2022/04/17 08:55:36;;;;;;;2.22;1.10;;;;;;;12.51;67.62;99614.69;5173283;27;20572;-63
2022/04/17 08:58:03;;;;;;;1.08;0.90;;;;;;;13.26;69.70;99604.06;5173855;27;20049;-63
2022/04/17 09:00:29;;;;;;;0.80;0.70;;;;;;;13.45;62.68;99606.69;5173190;27;20050;-62
2022/04/17 09:02:56;;;;;;;0.65;0.57;;;;;;;13.55;67.16;99617.06;5173357;27;20042;-62
2022/04/17 09:05:22;;;;;;;0.60;0.60;;;;;;;14.01;64.18;99602.25;5173189;27;20050;-62
2022/04/17 09:07:50;;;;;;;0.70;0.70;;;;;;;13.53;66.95;99629.59;5173420;27;20532;-62
2022/04/17 09:10:27;;;;;;;0.70;0.70;;;;;;;13.08;65.11;99621.09;5173147;27;20085;-62
2022/04/17 09:12:54;;;;;;;1.95;0.70;;;;;;;13.29;68.57;99603.31;5173270;27;20106;-62
2022/04/17 09:15:23;;;;;;;1.40;0.80;;;;;;;13.71;68.98;99599.53;5172877;27;20042;-62
2022/04/17 09:17:50;;;;;;;0.85;0.60;;;;;;;13.54;62.48;99607.22;5172483;27;20046;-62
2022/04/17 09:20:19;;;;;;;1.13;1.00;;;;;;;13.07;63.93;99603.00;5172996;27;20050;-62
2022/04/17 09:22:46;;;;;;;3.20;1.20;;;;;;;12.69;65.24;99601.22;5172764;27;20042;-63
2022/04/17 09:25:13;;;;;;;2.80;0.88;;;;;;;12.98;68.28;99582.41;5172559;27;20042;-62
2022/04/17 09:27:42;;;;;;;1.42;0.77;;;;;;;13.20;70.04;99573.31;5172736;27;20416;-62
2022/04/17 09:30:25;;;;;;;0.73;0.70;;;;;;;13.69;64.82;99588.09;5172858;27;20089;-63
2022/04/17 09:32:51;;;;;;;2.58;1.00;;;;;;;13.58;62.08;99594.28;5172981;27;20057;-62
2022/04/17 09:35:22;;;;;;;0.77;0.60;;;;;;;12.47;59.93;99600.09;5173036;27;20050;-62
2022/04/17 09:37:48;;;;;;;0.82;0.80;;;;;;;12.08;64.79;99586.41;5172635;27;20050;-61
2022/04/17 09:40:19;;;;;;;0.70;0.70;;;;;;;12.09;64.07;99577.00;5172879;27;20057;-61
2022/04/17 09:42:47;;;;;;;1.00;0.70;;;;;;;11.80;62.69;99599.59;5172880;27;20054;-61
2022/04/17 09:45:14;;;;;;;2.85;1.02;;;;;;;11.76;62.42;99599.50;5173122;27;20092;-61
2022/04/17 09:47:40;;;;;;;1.40;0.75;;;;;;;11.66;62.61;99570.69;5172708;27;20100;-61
2022/04/17 09:50:08;;;;;;;1.33;0.80;;;;;;;10.75;66.88;99573.78;5172724;27;20042;-61
2022/04/17 09:52:40;;;;;;;0.80;0.80;;;;;;;10.98;66.77;99576.69;5172849;27;20378;-61
2022/04/17 09:55:07;;;;;;;0.70;0.70;;;;;;;11.06;65.96;99570.19;5172538;27;20046;-62
2022/04/17 09:57:36;;;;;;;0.77;0.70;;;;;;;11.19;66.14;99574.41;5172534;27;20485;-61
2022/04/17 10:00:11;;;;;;;1.58;0.70;;;;;;;11.66;68.74;99569.88;5172510;27;20046;-61
2022/04/17 10:02:38;;;;;;;0.75;0.60;;;;;;;11.95;65.71;99568.50;5172508;27;20053;-61
2022/04/17 10:05:07;;;;;;;0.90;0.75;;;;;;;11.63;64.66;99568.66;5172147;27;20046;-61
2022/04/17 10:07:37;;;;;;;1.85;0.70;;;;;;;11.86;66.71;99565.19;5172450;27;20050;-61
2022/04/17 10:10:04;;;;;;;1.65;0.50;;;;;;;11.51;63.61;99563.31;5172667;27;20042;-60
2022/04/17 10:12:30;;;;;;;0.88;0.70;;;;;;;11.01;65.75;99576.75;5172417;27;20054;-60
2022/04/17 10:15:01;;;;;;;1.40;0.80;;;;;;;11.41;68.05;99563.91;5172344;27;20444;-61
2022/04/17 10:17:28;;;;;;;1.38;0.88;;;;;;;11.52;66.38;99559.41;5171708;27;20053;-61
2022/04/17 10:19:55;;;;;;;2.50;0.70;;;;;;;11.58;65.44;99548.94;5172177;27;20424;-61
2022/04/17 10:22:25;;;;;;;0.77;0.77;;;;;;;11.21;66.59;99558.38;5172394;27;20398;-61
2022/04/17 10:24:52;;;;;;;1.02;0.90;;;;;;;10.28;66.06;99545.25;5172441;27;20050;-61
2022/04/17 10:27:22;;;;;;;0.90;0.90;;;;;;;10.41;65.91;99547.91;5172180;27;20050;-61
2022/04/17 10:29:56;;;;;;;0.70;0.70;;;;;;;10.42;66.64;99546.75;5172232;27;20046;-61
2022/04/17 10:32:51;;;;;;;0.85;0.70;;;;;;;10.46;66.12;99539.41;5171993;27;20053;-61
2022/04/17 10:35:26;;;;;;;0.93;0.80;;;;;;;10.32;67.03;99543.41;5126379;27;20050;-61
2022/04/17 10:38:26;;;;;;;0.82;0.82;;;;;;;9.97;67.46;99537.00;5171927;27;20413;-61
2022/04/17 10:40:55;;;;;;;1.58;1.00;;;;;;;10.11;66.97;99526.41;5172292;27;20050;-62
2022/04/17 10:43:22;;;;;;;4.50;0.70;;;;;;;10.47;68.66;99521.84;5173976;27;20050;-61
2022/04/17 10:46:12;;;;;;;1.15;0.73;;;;;;;10.45;68.15;99527.66;5175742;27;20042;-61
2022/04/17 10:48:46;;;;;;;0.82;0.70;;;;;;;10.23;68.08;99520.03;5175393;27;20050;-62
2022/04/17 10:51:14;;;;;;;3.05;0.60;;;;;;;10.30;67.73;99512.81;5175511;27;20544;-61
2022/04/17 10:53:50;;;;;;;0.85;0.77;;;;;;;9.95;71.20;99522.84;5175484;27;20046;-61
2022/04/17 10:56:18;;;;;;;0.93;0.70;;;;;;;9.87;71.88;99521.88;5175642;27;20436;-62
2022/04/17 10:58:51;;;;;;;0.70;0.70;;;;;;;9.79;70.98;99496.22;5175861;27;20046;-61
2022/04/17 11:01:53;;;;;;;4.28;0.70;;;;;;;9.74;70.90;99504.72;5175540;27;20053;-62
2022/04/17 11:04:24;;;;;;;1.13;0.80;;;;;;;9.87;72.45;99503.50;5175614;27;20050;-61
2022/04/17 11:07:21;;;;;;;0.80;0.70;;;;;;;9.64;69.72;99522.44;5175384;27;20058;-61
2022/04/17 11:10:03;;;;;;;3.40;0.70;;;;;;;9.19;71.84;99514.53;5167541;27;20065;-61
2022/04/17 11:12:29;;;;;;;0.52;0.52;;;;;;;9.13;69.97;99514.00;5175340;27;20126;-61
2022/04/17 11:15:18;;;;;;;0.90;0.65;;;;;;;9.42;70.89;99509.31;5175123;27;20057;-61
2022/04/17 11:17:46;;;;;;;1.15;0.57;;;;;;;9.51;70.34;99503.69;5174336;27;20042;-61
2022/04/17 11:20:15;;;;;;;1.95;0.80;;;;;;;9.06;69.29;99513.75;5175109;27;20042;-61
2022/04/17 11:22:41;;;;;;;0.70;0.70;;;;;;;8.57;68.23;99518.53;5175245;27;20093;-61
2022/04/17 11:25:09;;;;;;;2.30;1.02;;;;;;;8.65;67.41;99504.72;5175157;27;20043;-61
2022/04/17 11:30:35;;;;;;;2.53;1.08;;;;;;;8.80;67.39;99491.50;5173985;27;20125;-61
2022/04/17 11:33:05;;;;;;;0.80;0.80;;;;;;;8.73;69.79;99503.03;5175381;27;20050;-61
2022/04/17 11:35:31;;;;;;;0.57;0.57;;;;;;;8.56;70.65;99501.31;5174799;27;20043;-61
2022/04/17 11:38:01;;;;;;;1.15;0.50;;;;;;;8.48;69.66;99500.31;5174815;27;20046;-61
2022/04/17 11:40:31;;;;;;;0.50;0.50;;;;;;;8.35;75.21;99489.69;5174700;27;20098;-61
2022/04/17 11:43:04;;;;;;;0.65;0.65;;;;;;;8.30;72.20;99493.47;5174979;27;20054;-61
2022/04/17 11:45:30;;;;;;;1.55;0.80;;;;;;;8.22;74.16;99488.88;5174691;27;20051;-61
2022/04/17 11:48:03;;;;;;;3.47;0.70;;;;;;;8.82;76.52;99461.88;5174772;27;20049;-62
2022/04/17 11:50:30;;;;;;;1.48;0.57;;;;;;;9.27;73.14;99471.78;5175144;27;20042;-62
2022/04/17 11:52:58;;;;;;;1.63;0.75;;;;;;;9.79;71.35;99463.38;5174923;27;20065;-61
2022/04/17 11:55:27;;;;;;;3.20;0.60;;;;;;;9.92;67.20;99482.47;5173750;27;20855;-61